RYR8XK LIPE-LIBC
Flight info
| Callsign | RYR8XK |
|---|---|
| Flight time | 1h 8m |
| Altitude | 35000 |
| Route | PELEG M726 GAVRA DCT NIKMA DCT IPGOR DCT ALAXI DCT TEA DCT POLIT DCT EVINO M620 CDC |
| Aircraft | B738/M-SDE2E3FGHIRWXY/LB1 |
Departure
| Time | 2026-04-22 21:06 |
|---|---|
| Airport | Bologna Guglielmo Marconi Airport (LIPE) |
Arrival
| Time | 2026-04-22 22:14 |
|---|---|
| Airport | Crotone Sant'Anna Pythagoras Airport (LIBC) |
| Time | Latitude | Longitude | Altitude | Speed | Heading |
|---|---|---|---|---|---|
| 2026-04-22 20:27 | 44.53069 | 11.29316 | 128 ft | 0 kts | 206° |
| 2026-04-22 20:54 | 44.53079 | 11.29323 | 132 ft | 4 kts | 211° |
| 2026-04-22 20:54 | 44.53100 | 11.29346 | 127 ft | 4 kts | 234° |
| 2026-04-22 20:55 | 44.53109 | 11.29378 | 125 ft | 4 kts | 278° |
| 2026-04-22 20:55 | 44.53106 | 11.29396 | 125 ft | 1 kts | 297° |
| 2026-04-22 20:55 | 44.53105 | 11.29398 | 129 ft | 0 kts | 297° |
| 2026-04-22 20:59 | 44.53113 | 11.29376 | 132 ft | 5 kts | 298° |
| 2026-04-22 20:59 | 44.53159 | 11.29364 | 125 ft | 9 kts | 344° |
| 2026-04-22 20:59 | 44.53198 | 11.29279 | 130 ft | 14 kts | 297° |
| 2026-04-22 20:59 | 44.53249 | 11.29136 | 127 ft | 18 kts | 297° |
| 2026-04-22 21:00 | 44.53304 | 11.28986 | 129 ft | 17 kts | 297° |
| 2026-04-22 21:00 | 44.53356 | 11.28842 | 128 ft | 16 kts | 297° |
| 2026-04-22 21:00 | 44.53406 | 11.28702 | 129 ft | 16 kts | 297° |
| 2026-04-22 21:00 | 44.53454 | 11.28569 | 126 ft | 15 kts | 297° |
| 2026-04-22 21:01 | 44.53500 | 11.28442 | 125 ft | 14 kts | 297° |
| 2026-04-22 21:01 | 44.53544 | 11.28318 | 127 ft | 14 kts | 296° |
| 2026-04-22 21:01 | 44.53586 | 11.28200 | 132 ft | 13 kts | 296° |
| 2026-04-22 21:01 | 44.53626 | 11.28089 | 128 ft | 13 kts | 296° |
| 2026-04-22 21:02 | 44.53666 | 11.27979 | 129 ft | 12 kts | 296° |
| 2026-04-22 21:02 | 44.53704 | 11.27872 | 126 ft | 12 kts | 296° |
| 2026-04-22 21:02 | 44.53742 | 11.27768 | 126 ft | 12 kts | 297° |
| 2026-04-22 21:02 | 44.53779 | 11.27667 | 124 ft | 12 kts | 297° |
| 2026-04-22 21:03 | 44.53815 | 11.27568 | 128 ft | 11 kts | 297° |
| 2026-04-22 21:03 | 44.53850 | 11.27472 | 127 ft | 11 kts | 297° |
| 2026-04-22 21:03 | 44.53883 | 11.27378 | 125 ft | 11 kts | 297° |
| 2026-04-22 21:03 | 44.53935 | 11.27309 | 129 ft | 10 kts | 326° |
| 2026-04-22 21:04 | 44.53994 | 11.27254 | 126 ft | 10 kts | 326° |
| 2026-04-22 21:04 | 44.54054 | 11.27212 | 128 ft | 10 kts | 354° |
| 2026-04-22 21:04 | 44.54111 | 11.27246 | 129 ft | 6 kts | 35° |
| 2026-04-22 21:04 | 44.54114 | 11.27303 | 128 ft | 6 kts | 120° |
| 2026-04-22 21:05 | 44.54114 | 11.27304 | 126 ft | 0 kts | 120° |
| 2026-04-22 21:05 | 44.54089 | 11.27368 | 127 ft | 30 kts | 118° |
| 2026-04-22 21:05 | 44.53873 | 11.27959 | 123 ft | 104 kts | 117° |
| 2026-04-22 21:06 | 44.53457 | 11.29135 | 149 ft | 161 kts | 116° |
| 2026-04-22 21:06 | 44.52950 | 11.30583 | 760 ft | 167 kts | 114° |
| 2026-04-22 21:06 | 44.52869 | 11.32148 | 1545 ft | 166 kts | 66° |
| 2026-04-22 21:06 | 44.53666 | 11.33255 | 2230 ft | 166 kts | 20° |
| 2026-04-22 21:07 | 44.54784 | 11.33826 | 2898 ft | 173 kts | 26° |
| 2026-04-22 21:07 | 44.55732 | 11.34992 | 3273 ft | 198 kts | 60° |
| 2026-04-22 21:07 | 44.56561 | 11.36490 | 4022 ft | 189 kts | 42° |
| 2026-04-22 21:07 | 44.57599 | 11.37647 | 4622 ft | 199 kts | 26° |
| 2026-04-22 21:08 | 44.58996 | 11.38088 | 5130 ft | 211 kts | 17° |
| 2026-04-22 21:08 | 44.60362 | 11.38814 | 5884 ft | 209 kts | 27° |
| 2026-04-22 21:08 | 44.61676 | 11.39696 | 6669 ft | 209 kts | 30° |
| 2026-04-22 21:08 | 44.62971 | 11.40647 | 7379 ft | 211 kts | 31° |
| 2026-04-22 21:09 | 44.64267 | 11.41642 | 8071 ft | 215 kts | 31° |
| 2026-04-22 21:09 | 44.65498 | 11.42899 | 8509 ft | 229 kts | 53° |
| 2026-04-22 21:09 | 44.66093 | 11.45008 | 9020 ft | 242 kts | 82° |
| 2026-04-22 21:09 | 44.65852 | 11.47375 | 9699 ft | 253 kts | 109° |
| 2026-04-22 21:10 | 44.64788 | 11.49456 | 10135 ft | 280 kts | 136° |
| 2026-04-22 21:10 | 44.63052 | 11.50919 | 10453 ft | 305 kts | 151° |
| 2026-04-22 21:10 | 44.61019 | 11.52138 | 10672 ft | 328 kts | 155° |
| 2026-04-22 21:10 | 44.58852 | 11.53327 | 11227 ft | 338 kts | 156° |
| 2026-04-22 21:11 | 44.56643 | 11.54519 | 11960 ft | 341 kts | 156° |
| 2026-04-22 21:11 | 44.54418 | 11.55730 | 12704 ft | 345 kts | 156° |
| 2026-04-22 21:11 | 44.52171 | 11.56973 | 13391 ft | 351 kts | 156° |
| 2026-04-22 21:11 | 44.49885 | 11.58250 | 14121 ft | 355 kts | 156° |
| 2026-04-22 21:12 | 44.47580 | 11.59542 | 14838 ft | 359 kts | 156° |
| 2026-04-22 21:12 | 44.45245 | 11.60858 | 15531 ft | 365 kts | 156° |
| 2026-04-22 21:12 | 44.42874 | 11.62197 | 16233 ft | 369 kts | 156° |
| 2026-04-22 21:12 | 44.40478 | 11.63550 | 16908 ft | 375 kts | 156° |
| 2026-04-22 21:13 | 44.38047 | 11.64921 | 17559 ft | 380 kts | 157° |
| 2026-04-22 21:13 | 44.35578 | 11.66313 | 18212 ft | 385 kts | 157° |
| 2026-04-22 21:13 | 44.33079 | 11.67721 | 18841 ft | 390 kts | 157° |
| 2026-04-22 21:13 | 44.30549 | 11.69146 | 19463 ft | 394 kts | 157° |
| 2026-04-22 21:14 | 44.27989 | 11.70586 | 20063 ft | 399 kts | 158° |
| 2026-04-22 21:14 | 44.25391 | 11.72045 | 20613 ft | 405 kts | 158° |
| 2026-04-22 21:14 | 44.22730 | 11.73424 | 21172 ft | 410 kts | 164° |
| 2026-04-22 21:14 | 44.19929 | 11.74234 | 21760 ft | 413 kts | 173° |
| 2026-04-22 21:15 | 44.17068 | 11.74787 | 22330 ft | 417 kts | 174° |
| 2026-04-22 21:15 | 44.14174 | 11.75309 | 22850 ft | 422 kts | 174° |
| 2026-04-22 21:15 | 44.11248 | 11.75846 | 23405 ft | 425 kts | 174° |
| 2026-04-22 21:15 | 44.08341 | 11.76394 | 23942 ft | 429 kts | 174° |
| 2026-04-22 21:16 | 44.05371 | 11.76971 | 24423 ft | 434 kts | 174° |
| 2026-04-22 21:16 | 44.02369 | 11.77563 | 24884 ft | 438 kts | 175° |
| 2026-04-22 21:16 | 43.99340 | 11.78165 | 25346 ft | 442 kts | 175° |
| 2026-04-22 21:16 | 43.96292 | 11.78773 | 25838 ft | 444 kts | 175° |
| 2026-04-22 21:17 | 43.93219 | 11.79383 | 26299 ft | 448 kts | 175° |
| 2026-04-22 21:17 | 43.90120 | 11.79997 | 26732 ft | 451 kts | 176° |
| 2026-04-22 21:17 | 43.87000 | 11.80615 | 27170 ft | 455 kts | 176° |
| 2026-04-22 21:17 | 43.83857 | 11.81243 | 27605 ft | 457 kts | 176° |
| 2026-04-22 21:18 | 43.80702 | 11.81877 | 28012 ft | 460 kts | 176° |
| 2026-04-22 21:18 | 43.77525 | 11.82587 | 28378 ft | 466 kts | 172° |
| 2026-04-22 21:18 | 43.74394 | 11.83889 | 28746 ft | 473 kts | 164° |
| 2026-04-22 21:18 | 43.71295 | 11.85468 | 29139 ft | 476 kts | 163° |
| 2026-04-22 21:19 | 43.68188 | 11.87098 | 29504 ft | 479 kts | 163° |
| 2026-04-22 21:19 | 43.65063 | 11.88745 | 29830 ft | 482 kts | 163° |
| 2026-04-22 21:19 | 43.61906 | 11.90381 | 30177 ft | 486 kts | 164° |
| 2026-04-22 21:19 | 43.58729 | 11.92008 | 30503 ft | 489 kts | 164° |
| 2026-04-22 21:20 | 43.55536 | 11.93627 | 30872 ft | 490 kts | 164° |
| 2026-04-22 21:20 | 43.52332 | 11.95236 | 31326 ft | 489 kts | 164° |
| 2026-04-22 21:20 | 43.49154 | 11.96829 | 31826 ft | 486 kts | 164° |
| 2026-04-22 21:20 | 43.45981 | 11.98419 | 32310 ft | 483 kts | 164° |
| 2026-04-22 21:21 | 43.42828 | 11.99997 | 32709 ft | 482 kts | 164° |
| 2026-04-22 21:21 | 43.39680 | 12.01569 | 33072 ft | 482 kts | 164° |
| 2026-04-22 21:21 | 43.36529 | 12.03141 | 33482 ft | 481 kts | 164° |
| 2026-04-22 21:21 | 43.33391 | 12.04706 | 33897 ft | 478 kts | 165° |
| 2026-04-22 21:22 | 43.30265 | 12.06262 | 34256 ft | 478 kts | 165° |
| 2026-04-22 21:22 | 43.27145 | 12.07814 | 34577 ft | 477 kts | 164° |
| 2026-04-22 21:22 | 43.24013 | 12.09371 | 34788 ft | 480 kts | 164° |
| 2026-04-22 21:22 | 43.20875 | 12.10929 | 35060 ft | 481 kts | 164° |
| 2026-04-22 21:23 | 43.17719 | 12.12495 | 35188 ft | 484 kts | 164° |
| 2026-04-22 21:23 | 43.14540 | 12.14069 | 35176 ft | 486 kts | 164° |
| 2026-04-22 21:23 | 43.08212 | 12.17205 | 35160 ft | 480 kts | 164° |
| 2026-04-22 21:24 | 43.01950 | 12.20300 | 35172 ft | 478 kts | 164° |
| 2026-04-22 21:24 | 42.95747 | 12.23370 | 35173 ft | 478 kts | 164° |
| 2026-04-22 21:25 | 42.89500 | 12.26526 | 35156 ft | 481 kts | 159° |
| 2026-04-22 21:25 | 42.83755 | 12.31284 | 35164 ft | 488 kts | 147° |
| 2026-04-22 21:26 | 42.78167 | 12.36754 | 35140 ft | 501 kts | 146° |
| 2026-04-22 21:26 | 42.72433 | 12.42323 | 35130 ft | 512 kts | 147° |
| 2026-04-22 21:27 | 42.66589 | 12.47916 | 35119 ft | 515 kts | 147° |
| 2026-04-22 21:27 | 42.60717 | 12.53490 | 35095 ft | 515 kts | 147° |
| 2026-04-22 21:28 | 42.54844 | 12.59046 | 35089 ft | 514 kts | 147° |
| 2026-04-22 21:28 | 42.48984 | 12.64584 | 35079 ft | 513 kts | 147° |
| 2026-04-22 21:29 | 42.43122 | 12.70106 | 35083 ft | 513 kts | 148° |
| 2026-04-22 21:29 | 42.37275 | 12.75610 | 35072 ft | 512 kts | 148° |
| 2026-04-22 21:30 | 42.31433 | 12.81092 | 35071 ft | 510 kts | 148° |
| 2026-04-22 21:30 | 42.25607 | 12.86550 | 35075 ft | 509 kts | 148° |
| 2026-04-22 21:31 | 42.19787 | 12.91985 | 35072 ft | 509 kts | 148° |
| 2026-04-22 21:31 | 42.13970 | 12.97407 | 35058 ft | 508 kts | 148° |
| 2026-04-22 21:32 | 42.08149 | 13.02822 | 35060 ft | 508 kts | 148° |
| 2026-04-22 21:32 | 42.02377 | 13.08178 | 35079 ft | 508 kts | 149° |
| 2026-04-22 21:33 | 41.96554 | 13.13569 | 35079 ft | 509 kts | 149° |
| 2026-04-22 21:33 | 41.90723 | 13.18956 | 35066 ft | 509 kts | 149° |
| 2026-04-22 21:34 | 41.85829 | 13.23467 | 35067 ft | 509 kts | 149° |
| 2026-04-22 21:34 | 41.79983 | 13.28848 | 35056 ft | 511 kts | 149° |
| 2026-04-22 21:35 | 41.74141 | 13.34267 | 35056 ft | 512 kts | 146° |
| 2026-04-22 21:35 | 41.69034 | 13.40895 | 35061 ft | 517 kts | 134° |
| 2026-04-22 21:36 | 41.64191 | 13.48030 | 35056 ft | 518 kts | 134° |
| 2026-04-22 21:36 | 41.59313 | 13.55119 | 35056 ft | 519 kts | 135° |
| 2026-04-22 21:37 | 41.54387 | 13.62155 | 35055 ft | 519 kts | 135° |
| 2026-04-22 21:37 | 41.49443 | 13.69177 | 35056 ft | 519 kts | 135° |
| 2026-04-22 21:38 | 41.44499 | 13.76186 | 35068 ft | 519 kts | 135° |
| 2026-04-22 21:38 | 41.39555 | 13.83188 | 35074 ft | 518 kts | 135° |
| 2026-04-22 21:39 | 41.34610 | 13.90178 | 35076 ft | 518 kts | 136° |
| 2026-04-22 21:39 | 41.29533 | 13.96955 | 35064 ft | 515 kts | 144° |
| 2026-04-22 21:40 | 41.23565 | 14.02011 | 35080 ft | 506 kts | 156° |
| 2026-04-22 21:40 | 41.17409 | 14.06556 | 35077 ft | 506 kts | 156° |
| 2026-04-22 21:41 | 41.11279 | 14.11134 | 35073 ft | 506 kts | 155° |
| 2026-04-22 21:41 | 41.05178 | 14.15749 | 35075 ft | 505 kts | 155° |
| 2026-04-22 21:42 | 40.99082 | 14.20375 | 35068 ft | 504 kts | 155° |
| 2026-04-22 21:42 | 40.92992 | 14.24984 | 35072 ft | 503 kts | 155° |
| 2026-04-22 21:43 | 40.86924 | 14.29565 | 35077 ft | 502 kts | 155° |
| 2026-04-22 21:43 | 40.80867 | 14.34121 | 35078 ft | 500 kts | 155° |
| 2026-04-22 21:44 | 40.74819 | 14.38660 | 35069 ft | 500 kts | 155° |
| 2026-04-22 21:44 | 40.68820 | 14.43155 | 35080 ft | 499 kts | 155° |
| 2026-04-22 21:45 | 40.62758 | 14.47689 | 35069 ft | 496 kts | 155° |
| 2026-04-22 21:45 | 40.59833 | 14.49878 | 35062 ft | 483 kts | 155° |
| 2026-04-22 21:45 | 40.56940 | 14.52041 | 35062 ft | 476 kts | 155° |
| 2026-04-22 21:46 | 40.51187 | 14.56323 | 35075 ft | 475 kts | 155° |
| 2026-04-22 21:46 | 40.45423 | 14.60600 | 35086 ft | 476 kts | 155° |
| 2026-04-22 21:47 | 40.39645 | 14.64885 | 35078 ft | 477 kts | 155° |
| 2026-04-22 21:47 | 40.33857 | 14.69172 | 35076 ft | 478 kts | 155° |
| 2026-04-22 21:48 | 40.28062 | 14.73455 | 35072 ft | 478 kts | 155° |
| 2026-04-22 21:48 | 40.22263 | 14.77731 | 35074 ft | 478 kts | 155° |
| 2026-04-22 21:49 | 40.16466 | 14.82001 | 35075 ft | 478 kts | 155° |
| 2026-04-22 21:49 | 40.11073 | 14.87154 | 35080 ft | 483 kts | 142° |
| 2026-04-22 21:50 | 40.06040 | 14.92969 | 35073 ft | 483 kts | 142° |
| 2026-04-22 21:50 | 40.01012 | 14.98759 | 35074 ft | 481 kts | 142° |
| 2026-04-22 21:51 | 39.95964 | 15.04474 | 35097 ft | 479 kts | 143° |
| 2026-04-22 21:52 | 39.88442 | 15.12920 | 35068 ft | 477 kts | 143° |
| 2026-04-22 21:52 | 39.83428 | 15.18542 | 35082 ft | 475 kts | 143° |
| 2026-04-22 21:52 | 39.80925 | 15.21344 | 34951 ft | 476 kts | 143° |
| 2026-04-22 21:53 | 39.78412 | 15.24156 | 34456 ft | 476 kts | 143° |
| 2026-04-22 21:53 | 39.75905 | 15.26958 | 33934 ft | 475 kts | 143° |
| 2026-04-22 21:53 | 39.73396 | 15.29759 | 33380 ft | 475 kts | 143° |
| 2026-04-22 21:53 | 39.70885 | 15.32559 | 32821 ft | 476 kts | 143° |
| 2026-04-22 21:54 | 39.68374 | 15.35363 | 32291 ft | 476 kts | 143° |
| 2026-04-22 21:54 | 39.65862 | 15.38170 | 31707 ft | 477 kts | 143° |
| 2026-04-22 21:54 | 39.63345 | 15.40982 | 31109 ft | 478 kts | 143° |
| 2026-04-22 21:54 | 39.60824 | 15.43796 | 30489 ft | 479 kts | 144° |
| 2026-04-22 21:55 | 39.58303 | 15.46607 | 30036 ft | 476 kts | 144° |
| 2026-04-22 21:55 | 39.55804 | 15.49395 | 29556 ft | 473 kts | 144° |
| 2026-04-22 21:55 | 39.53311 | 15.52172 | 29101 ft | 471 kts | 144° |
| 2026-04-22 21:55 | 39.50841 | 15.54920 | 28644 ft | 468 kts | 144° |
| 2026-04-22 21:56 | 39.48379 | 15.57655 | 28172 ft | 465 kts | 144° |
| 2026-04-22 21:56 | 39.45931 | 15.60372 | 27707 ft | 462 kts | 144° |
| 2026-04-22 21:56 | 39.43501 | 15.63066 | 27251 ft | 459 kts | 144° |
| 2026-04-22 21:56 | 39.41085 | 15.65742 | 26795 ft | 456 kts | 144° |
| 2026-04-22 21:57 | 39.38717 | 15.68362 | 26345 ft | 453 kts | 144° |
| 2026-04-22 21:57 | 39.36328 | 15.71001 | 25891 ft | 450 kts | 144° |
| 2026-04-22 21:57 | 39.33967 | 15.73610 | 25448 ft | 446 kts | 144° |
| 2026-04-22 21:57 | 39.31611 | 15.76212 | 24996 ft | 443 kts | 144° |
| 2026-04-22 21:58 | 39.29277 | 15.78785 | 24561 ft | 441 kts | 144° |
| 2026-04-22 21:58 | 39.26945 | 15.81354 | 24115 ft | 439 kts | 144° |
| 2026-04-22 21:58 | 39.24625 | 15.83891 | 23679 ft | 435 kts | 144° |
| 2026-04-22 21:58 | 39.22311 | 15.86394 | 23227 ft | 433 kts | 144° |
| 2026-04-22 21:59 | 39.20012 | 15.88876 | 22790 ft | 430 kts | 144° |
| 2026-04-22 21:59 | 39.17731 | 15.91344 | 22354 ft | 427 kts | 144° |
| 2026-04-22 21:59 | 39.15461 | 15.93800 | 21920 ft | 425 kts | 144° |
| 2026-04-22 21:59 | 39.13210 | 15.96233 | 21485 ft | 420 kts | 144° |
| 2026-04-22 22:00 | 39.10990 | 15.98643 | 21058 ft | 416 kts | 144° |
| 2026-04-22 22:00 | 39.08787 | 16.01039 | 20640 ft | 413 kts | 144° |
| 2026-04-22 22:00 | 39.06597 | 16.03419 | 20215 ft | 411 kts | 144° |
| 2026-04-22 22:00 | 39.04417 | 16.05786 | 19794 ft | 408 kts | 144° |
| 2026-04-22 22:01 | 39.02252 | 16.08133 | 19372 ft | 407 kts | 144° |
| 2026-04-22 22:01 | 39.00096 | 16.10477 | 18956 ft | 405 kts | 144° |
| 2026-04-22 22:01 | 38.97952 | 16.12802 | 18535 ft | 402 kts | 144° |
| 2026-04-22 22:01 | 38.95816 | 16.15114 | 18127 ft | 400 kts | 144° |
| 2026-04-22 22:02 | 38.93696 | 16.17405 | 17712 ft | 397 kts | 144° |
| 2026-04-22 22:02 | 38.91585 | 16.19686 | 17291 ft | 395 kts | 144° |
| 2026-04-22 22:02 | 38.89485 | 16.21952 | 16886 ft | 393 kts | 144° |
| 2026-04-22 22:02 | 38.87400 | 16.24202 | 16474 ft | 391 kts | 144° |
| 2026-04-22 22:03 | 38.85324 | 16.26439 | 16066 ft | 388 kts | 144° |
| 2026-04-22 22:03 | 38.83264 | 16.28659 | 15659 ft | 385 kts | 144° |
| 2026-04-22 22:03 | 38.81216 | 16.30864 | 15260 ft | 383 kts | 144° |
| 2026-04-22 22:03 | 38.79178 | 16.33056 | 14842 ft | 381 kts | 143° |
| 2026-04-22 22:04 | 38.77249 | 16.35370 | 14438 ft | 383 kts | 130° |
| 2026-04-22 22:04 | 38.76016 | 16.38381 | 14041 ft | 383 kts | 107° |
| 2026-04-22 22:04 | 38.75616 | 16.41714 | 13655 ft | 378 kts | 88° |
| 2026-04-22 22:04 | 38.75678 | 16.45055 | 13280 ft | 374 kts | 85° |
| 2026-04-22 22:05 | 38.75785 | 16.48367 | 12889 ft | 370 kts | 85° |
| 2026-04-22 22:05 | 38.75894 | 16.51651 | 12498 ft | 368 kts | 85° |
| 2026-04-22 22:05 | 38.75993 | 16.54921 | 12098 ft | 366 kts | 85° |
| 2026-04-22 22:05 | 38.76079 | 16.58171 | 11688 ft | 363 kts | 86° |
| 2026-04-22 22:06 | 38.76156 | 16.61388 | 11330 ft | 360 kts | 86° |
| 2026-04-22 22:06 | 38.76229 | 16.64581 | 10943 ft | 357 kts | 86° |
| 2026-04-22 22:06 | 38.76298 | 16.67748 | 10603 ft | 353 kts | 86° |
| 2026-04-22 22:06 | 38.76363 | 16.70849 | 10466 ft | 343 kts | 86° |
| 2026-04-22 22:07 | 38.76427 | 16.73862 | 10306 ft | 333 kts | 86° |
| 2026-04-22 22:07 | 38.76488 | 16.76793 | 10171 ft | 325 kts | 86° |
| 2026-04-22 22:07 | 38.76548 | 16.79646 | 10016 ft | 316 kts | 84° |
| 2026-04-22 22:07 | 38.76813 | 16.82445 | 9506 ft | 318 kts | 76° |
| 2026-04-22 22:08 | 38.77268 | 16.85234 | 9019 ft | 321 kts | 74° |
| 2026-04-22 22:08 | 38.77759 | 16.88045 | 8486 ft | 325 kts | 75° |
| 2026-04-22 22:08 | 38.78236 | 16.90851 | 7947 ft | 329 kts | 75° |
| 2026-04-22 22:08 | 38.78705 | 16.93734 | 7380 ft | 323 kts | 76° |
| 2026-04-22 22:09 | 38.79139 | 16.96490 | 6862 ft | 316 kts | 76° |
| 2026-04-22 22:09 | 38.79560 | 16.99214 | 6339 ft | 308 kts | 76° |
| 2026-04-22 22:09 | 38.79967 | 17.01880 | 5842 ft | 301 kts | 76° |
| 2026-04-22 22:09 | 38.80373 | 17.04490 | 5355 ft | 295 kts | 76° |
| 2026-04-22 22:10 | 38.80777 | 17.07058 | 4859 ft | 288 kts | 72° |
| 2026-04-22 22:10 | 38.81640 | 17.09226 | 4349 ft | 263 kts | 43° |
| 2026-04-22 22:10 | 38.83031 | 17.10554 | 3954 ft | 240 kts | 24° |
| 2026-04-22 22:10 | 38.84540 | 17.11242 | 3553 ft | 222 kts | 7° |
| 2026-04-22 22:11 | 38.86026 | 17.11362 | 3175 ft | 207 kts | 355° |
| 2026-04-22 22:11 | 38.87413 | 17.11056 | 2840 ft | 195 kts | 349° |
| 2026-04-22 22:11 | 38.88701 | 17.10822 | 2567 ft | 179 kts | 345° |
| 2026-04-22 22:11 | 38.89874 | 17.10522 | 2327 ft | 167 kts | 342° |
| 2026-04-22 22:12 | 38.91009 | 17.10223 | 2131 ft | 169 kts | 343° |
| 2026-04-22 22:12 | 38.92154 | 17.09928 | 1927 ft | 165 kts | 345° |
| 2026-04-22 22:12 | 38.93244 | 17.09652 | 1707 ft | 158 kts | 348° |
| 2026-04-22 22:12 | 38.94317 | 17.09382 | 1480 ft | 154 kts | 351° |
| 2026-04-22 22:13 | 38.95324 | 17.09128 | 1286 ft | 138 kts | 349° |
| 2026-04-22 22:13 | 38.96238 | 17.08897 | 1100 ft | 132 kts | 349° |
| 2026-04-22 22:13 | 38.97117 | 17.08680 | 921 ft | 128 kts | 349° |
| 2026-04-22 22:13 | 38.97997 | 17.08462 | 751 ft | 130 kts | 349° |
| 2026-04-22 22:14 | 38.98894 | 17.08235 | 580 ft | 131 kts | 349° |
| 2026-04-22 22:14 | 38.99728 | 17.08024 | 522 ft | 102 kts | 349° |
| 2026-04-22 22:14 | 39.00217 | 17.07900 | 529 ft | 45 kts | 348° |
| 2026-04-22 22:14 | 39.00446 | 17.07842 | 529 ft | 18 kts | 349° |
| 2026-04-22 22:15 | 39.00522 | 17.07820 | 530 ft | 7 kts | 335° |
| 2026-04-22 22:15 | 39.00557 | 17.07773 | 530 ft | 7 kts | 324° |
| 2026-04-22 22:15 | 39.00572 | 17.07805 | 530 ft | 7 kts | 143° |
| 2026-04-22 22:15 | 39.00514 | 17.07823 | 530 ft | 12 kts | 166° |
| 2026-04-22 22:16 | 39.00388 | 17.07857 | 528 ft | 25 kts | 168° |
| 2026-04-22 22:16 | 39.00203 | 17.07903 | 528 ft | 27 kts | 169° |
| 2026-04-22 22:16 | 39.00027 | 17.07947 | 526 ft | 25 kts | 169° |
| 2026-04-22 22:16 | 38.99863 | 17.07988 | 524 ft | 23 kts | 168° |
| 2026-04-22 22:17 | 38.99707 | 17.08028 | 522 ft | 22 kts | 168° |
| 2026-04-22 22:17 | 38.99657 | 17.07964 | 524 ft | 10 kts | 249° |
| 2026-04-22 22:17 | 38.99635 | 17.07885 | 525 ft | 7 kts | 251° |
| 2026-04-22 22:17 | 38.99645 | 17.07825 | 527 ft | 6 kts | 294° |
| 2026-04-22 22:18 | 38.99643 | 17.07777 | 528 ft | 5 kts | 258° |
| 2026-04-22 22:18 | 38.99637 | 17.07735 | 529 ft | 2 kts | 264° |
| 2026-04-22 22:18 | 38.99644 | 17.07719 | 529 ft | 1 kts | 303° |
| 2026-04-22 22:18 | 38.99646 | 17.07715 | 529 ft | 0 kts | 302° |